sensor_id;sensor_type;location;lat;lon;timestamp;P1;durP1;ratioP1;P2;durP2;ratioP2
71769;SDS011;66386;52.122;5.420;2024-02-26T00:00:27;3.72;;;2.00;;
71769;SDS011;66386;52.122;5.420;2024-02-26T00:02:55;3.35;;;2.22;;
71769;SDS011;66386;52.122;5.420;2024-02-26T00:05:22;2.30;;;1.83;;
71769;SDS011;66386;52.122;5.420;2024-02-26T00:07:48;2.47;;;1.90;;
71769;SDS011;66386;52.122;5.420;2024-02-26T00:10:15;4.38;;;2.10;;
71769;SDS011;66386;52.122;5.420;2024-02-26T00:12:41;3.38;;;2.10;;
71769;SDS011;66386;52.122;5.420;2024-02-26T00:15:08;4.65;;;2.40;;
71769;SDS011;66386;52.122;5.420;2024-02-26T00:17:36;3.03;;;2.40;;
71769;SDS011;66386;52.122;5.420;2024-02-26T00:20:03;5.80;;;2.57;;
71769;SDS011;66386;52.122;5.420;2024-02-26T00:22:35;4.28;;;2.65;;
71769;SDS011;66386;52.122;5.420;2024-02-26T00:25:02;3.95;;;2.45;;
71769;SDS011;66386;52.122;5.420;2024-02-26T00:27:28;5.28;;;3.03;;
71769;SDS011;66386;52.122;5.420;2024-02-26T00:29:55;4.68;;;2.50;;
71769;SDS011;66386;52.122;5.420;2024-02-26T00:32:21;3.63;;;2.97;;
71769;SDS011;66386;52.122;5.420;2024-02-26T00:34:48;4.57;;;3.28;;
71769;SDS011;66386;52.122;5.420;2024-02-26T00:37:14;3.47;;;2.72;;
71769;SDS011;66386;52.122;5.420;2024-02-26T00:39:41;4.22;;;3.33;;
71769;SDS011;66386;52.122;5.420;2024-02-26T00:42:07;7.28;;;3.00;;
71769;SDS011;66386;52.122;5.420;2024-02-26T00:44:34;5.30;;;2.97;;
71769;SDS011;66386;52.122;5.420;2024-02-26T00:47:01;6.05;;;3.00;;
71769;SDS011;66386;52.122;5.420;2024-02-26T00:49:28;3.83;;;2.88;;
71769;SDS011;66386;52.122;5.420;2024-02-26T00:51:55;4.13;;;3.15;;
71769;SDS011;66386;52.122;5.420;2024-02-26T00:54:22;5.50;;;3.28;;
71769;SDS011;66386;52.122;5.420;2024-02-26T00:56:48;3.90;;;3.07;;
71769;SDS011;66386;52.122;5.420;2024-02-26T00:59:15;4.03;;;3.03;;
71769;SDS011;66386;52.122;5.420;2024-02-26T01:01:41;4.10;;;2.90;;
71769;SDS011;66386;52.122;5.420;2024-02-26T01:04:08;5.50;;;3.67;;
71769;SDS011;66386;52.122;5.420;2024-02-26T01:06:34;3.60;;;3.05;;
71769;SDS011;66386;52.122;5.420;2024-02-26T01:09:01;9.60;;;3.47;;
71769;SDS011;66386;52.122;5.420;2024-02-26T01:11:28;5.63;;;3.50;;
71769;SDS011;66386;52.122;5.420;2024-02-26T01:13:55;4.13;;;3.38;;
71769;SDS011;66386;52.122;5.420;2024-02-26T01:16:23;4.15;;;3.47;;
71769;SDS011;66386;52.122;5.420;2024-02-26T01:18:50;4.97;;;3.63;;
71769;SDS011;66386;52.122;5.420;2024-02-26T01:21:16;4.90;;;3.27;;
71769;SDS011;66386;52.122;5.420;2024-02-26T01:23:43;4.57;;;3.65;;
71769;SDS011;66386;52.122;5.420;2024-02-26T01:26:10;4.50;;;3.65;;
71769;SDS011;66386;52.122;5.420;2024-02-26T01:28:37;4.47;;;2.78;;
71769;SDS011;66386;52.122;5.420;2024-02-26T01:31:03;4.57;;;4.03;;
71769;SDS011;66386;52.122;5.420;2024-02-26T01:33:33;4.30;;;3.37;;
71769;SDS011;66386;52.122;5.420;2024-02-26T01:36:00;4.60;;;3.83;;
71769;SDS011;66386;52.122;5.420;2024-02-26T01:38:27;5.65;;;3.33;;
71769;SDS011;66386;52.122;5.420;2024-02-26T01:40:54;4.03;;;3.45;;
71769;SDS011;66386;52.122;5.420;2024-02-26T01:43:20;3.90;;;2.80;;
71769;SDS011;66386;52.122;5.420;2024-02-26T01:45:46;4.87;;;2.93;;
71769;SDS011;66386;52.122;5.420;2024-02-26T01:48:13;3.97;;;3.47;;
71769;SDS011;66386;52.122;5.420;2024-02-26T01:50:40;4.15;;;3.03;;
71769;SDS011;66386;52.122;5.420;2024-02-26T01:53:07;4.15;;;3.13;;
71769;SDS011;66386;52.122;5.420;2024-02-26T01:55:35;5.30;;;3.25;;
71769;SDS011;66386;52.122;5.420;2024-02-26T01:58:01;5.17;;;3.70;;
71769;SDS011;66386;52.122;5.420;2024-02-26T02:00:28;4.10;;;2.90;;
71769;SDS011;66386;52.122;5.420;2024-02-26T02:02:55;4.63;;;3.10;;
71769;SDS011;66386;52.122;5.420;2024-02-26T02:05:22;3.80;;;3.15;;
71769;SDS011;66386;52.122;5.420;2024-02-26T02:07:48;5.57;;;3.50;;
71769;SDS011;66386;52.122;5.420;2024-02-26T02:10:15;5.30;;;3.30;;
71769;SDS011;66386;52.122;5.420;2024-02-26T02:12:44;4.45;;;3.38;;
71769;SDS011;66386;52.122;5.420;2024-02-26T02:15:11;4.57;;;3.38;;
71769;SDS011;66386;52.122;5.420;2024-02-26T02:17:37;4.97;;;3.60;;
71769;SDS011;66386;52.122;5.420;2024-02-26T02:20:07;5.95;;;3.42;;
71769;SDS011;66386;52.122;5.420;2024-02-26T02:22:35;6.33;;;3.40;;
71769;SDS011;66386;52.122;5.420;2024-02-26T02:25:01;4.57;;;3.30;;
71769;SDS011;66386;52.122;5.420;2024-02-26T02:27:28;6.32;;;3.30;;
71769;SDS011;66386;52.122;5.420;2024-02-26T02:29:55;6.10;;;3.55;;
71769;SDS011;66386;52.122;5.420;2024-02-26T02:32:22;4.80;;;3.45;;
71769;SDS011;66386;52.122;5.420;2024-02-26T02:34:51;5.00;;;3.30;;
71769;SDS011;66386;52.122;5.420;2024-02-26T02:37:18;4.50;;;3.25;;
71769;SDS011;66386;52.122;5.420;2024-02-26T02:39:44;5.88;;;3.30;;
71769;SDS011;66386;52.122;5.420;2024-02-26T02:42:11;5.63;;;3.20;;
71769;SDS011;66386;52.122;5.420;2024-02-26T02:44:38;7.43;;;3.33;;
71769;SDS011;66386;52.122;5.420;2024-02-26T02:47:05;4.07;;;2.63;;
71769;SDS011;66386;52.122;5.420;2024-02-26T02:49:31;4.22;;;3.20;;
71769;SDS011;66386;52.122;5.420;2024-02-26T02:51:58;5.72;;;3.10;;
71769;SDS011;66386;52.122;5.420;2024-02-26T02:54:24;6.28;;;3.60;;
71769;SDS011;66386;52.122;5.420;2024-02-26T02:56:51;4.70;;;3.15;;
71769;SDS011;66386;52.122;5.420;2024-02-26T02:59:17;5.07;;;3.53;;
71769;SDS011;66386;52.122;5.420;2024-02-26T03:01:44;5.22;;;3.20;;
71769;SDS011;66386;52.122;5.420;2024-02-26T03:04:10;5.43;;;3.20;;
71769;SDS011;66386;52.122;5.420;2024-02-26T03:06:37;5.40;;;3.53;;
71769;SDS011;66386;52.122;5.420;2024-02-26T03:09:03;6.32;;;2.80;;
71769;SDS011;66386;52.122;5.420;2024-02-26T03:11:30;5.13;;;3.40;;
71769;SDS011;66386;52.122;5.420;2024-02-26T03:13:57;4.32;;;3.10;;
71769;SDS011;66386;52.122;5.420;2024-02-26T03:16:23;6.72;;;3.70;;
71769;SDS011;66386;52.122;5.420;2024-02-26T03:18:50;5.00;;;3.30;;
71769;SDS011;66386;52.122;5.420;2024-02-26T03:21:17;4.38;;;3.25;;
71769;SDS011;66386;52.122;5.420;2024-02-26T03:23:44;5.23;;;3.50;;
71769;SDS011;66386;52.122;5.420;2024-02-26T03:26:11;4.93;;;3.33;;
71769;SDS011;66386;52.122;5.420;2024-02-26T03:28:40;5.57;;;3.72;;
71769;SDS011;66386;52.122;5.420;2024-02-26T03:31:06;6.35;;;3.63;;
71769;SDS011;66386;52.122;5.420;2024-02-26T03:33:33;6.80;;;3.50;;
71769;SDS011;66386;52.122;5.420;2024-02-26T03:36:00;5.07;;;3.73;;
71769;SDS011;66386;52.122;5.420;2024-02-26T03:38:28;6.00;;;4.05;;
71769;SDS011;66386;52.122;5.420;2024-02-26T03:40:55;5.43;;;3.85;;
71769;SDS011;66386;52.122;5.420;2024-02-26T03:43:21;6.32;;;4.18;;
71769;SDS011;66386;52.122;5.420;2024-02-26T03:45:48;7.60;;;3.90;;
71769;SDS011;66386;52.122;5.420;2024-02-26T03:48:14;5.30;;;4.00;;
71769;SDS011;66386;52.122;5.420;2024-02-26T03:50:41;6.88;;;4.60;;
71769;SDS011;66386;52.122;5.420;2024-02-26T03:53:07;7.57;;;4.50;;
71769;SDS011;66386;52.122;5.420;2024-02-26T03:55:39;7.05;;;4.60;;
71769;SDS011;66386;52.122;5.420;2024-02-26T03:58:07;7.43;;;4.55;;
71769;SDS011;66386;52.122;5.420;2024-02-26T04:00:35;6.23;;;4.57;;
71769;SDS011;66386;52.122;5.420;2024-02-26T04:03:03;7.38;;;4.90;;
71769;SDS011;66386;52.122;5.420;2024-02-26T04:05:30;5.95;;;4.03;;
71769;SDS011;66386;52.122;5.420;2024-02-26T04:07:56;7.85;;;4.65;;
71769;SDS011;66386;52.122;5.420;2024-02-26T04:10:23;6.22;;;4.70;;
71769;SDS011;66386;52.122;5.420;2024-02-26T04:12:49;7.27;;;4.03;;
71769;SDS011;66386;52.122;5.420;2024-02-26T04:15:16;7.30;;;4.07;;
71769;SDS011;66386;52.122;5.420;2024-02-26T04:17:43;8.75;;;4.55;;
71769;SDS011;66386;52.122;5.420;2024-02-26T04:20:13;7.10;;;4.40;;
71769;SDS011;66386;52.122;5.420;2024-02-26T04:22:41;6.70;;;4.22;;
71769;SDS011;66386;52.122;5.420;2024-02-26T04:25:08;6.23;;;4.03;;
71769;SDS011;66386;52.122;5.420;2024-02-26T04:27:35;8.00;;;4.63;;
71769;SDS011;66386;52.122;5.420;2024-02-26T04:30:01;7.25;;;3.95;;
71769;SDS011;66386;52.122;5.420;2024-02-26T04:32:29;9.25;;;5.00;;
71769;SDS011;66386;52.122;5.420;2024-02-26T04:34:56;6.43;;;4.53;;
71769;SDS011;66386;52.122;5.420;2024-02-26T04:37:22;6.43;;;4.10;;
71769;SDS011;66386;52.122;5.420;2024-02-26T04:39:49;6.32;;;4.28;;
71769;SDS011;66386;52.122;5.420;2024-02-26T04:42:16;5.47;;;4.32;;
71769;SDS011;66386;52.122;5.420;2024-02-26T04:44:43;5.43;;;3.90;;
71769;SDS011;66386;52.122;5.420;2024-02-26T04:47:09;4.78;;;3.60;;
71769;SDS011;66386;52.122;5.420;2024-02-26T04:49:37;5.40;;;3.30;;
71769;SDS011;66386;52.122;5.420;2024-02-26T04:52:03;7.07;;;4.03;;
71769;SDS011;66386;52.122;5.420;2024-02-26T04:54:30;6.05;;;3.92;;
71769;SDS011;66386;52.122;5.420;2024-02-26T04:56:57;8.38;;;4.13;;
71769;SDS011;66386;52.122;5.420;2024-02-26T04:59:23;7.53;;;4.43;;
71769;SDS011;66386;52.122;5.420;2024-02-26T05:01:49;7.33;;;3.87;;
71769;SDS011;66386;52.122;5.420;2024-02-26T05:04:17;5.60;;;4.18;;
71769;SDS011;66386;52.122;5.420;2024-02-26T05:06:44;5.75;;;4.15;;
71769;SDS011;66386;52.122;5.420;2024-02-26T05:09:11;6.38;;;4.40;;
71769;SDS011;66386;52.122;5.420;2024-02-26T05:11:38;6.70;;;4.40;;
71769;SDS011;66386;52.122;5.420;2024-02-26T05:14:08;6.33;;;4.10;;
71769;SDS011;66386;52.122;5.420;2024-02-26T05:16:35;7.45;;;4.28;;
71769;SDS011;66386;52.122;5.420;2024-02-26T05:19:01;6.30;;;4.40;;
71769;SDS011;66386;52.122;5.420;2024-02-26T05:21:29;6.28;;;4.65;;
71769;SDS011;66386;52.122;5.420;2024-02-26T05:23:55;7.43;;;5.32;;
71769;SDS011;66386;52.122;5.420;2024-02-26T05:26:22;7.40;;;4.17;;
71769;SDS011;66386;52.122;5.420;2024-02-26T05:28:49;7.43;;;4.55;;
71769;SDS011;66386;52.122;5.420;2024-02-26T05:31:16;6.22;;;4.43;;
71769;SDS011;66386;52.122;5.420;2024-02-26T05:33:44;7.05;;;5.03;;
71769;SDS011;66386;52.122;5.420;2024-02-26T05:36:17;7.95;;;4.28;;
71769;SDS011;66386;52.122;5.420;2024-02-26T05:38:44;6.57;;;4.53;;
71769;SDS011;66386;52.122;5.420;2024-02-26T05:41:12;8.30;;;5.22;;
71769;SDS011;66386;52.122;5.420;2024-02-26T05:43:41;6.03;;;4.30;;
71769;SDS011;66386;52.122;5.420;2024-02-26T05:46:08;7.50;;;4.78;;
71769;SDS011;66386;52.122;5.420;2024-02-26T05:48:35;7.70;;;4.88;;
71769;SDS011;66386;52.122;5.420;2024-02-26T05:51:02;8.77;;;4.93;;
71769;SDS011;66386;52.122;5.420;2024-02-26T05:53:29;9.15;;;5.40;;
71769;SDS011;66386;52.122;5.420;2024-02-26T05:55:55;7.50;;;4.60;;
71769;SDS011;66386;52.122;5.420;2024-02-26T05:58:22;9.60;;;4.75;;
71769;SDS011;66386;52.122;5.420;2024-02-26T06:00:48;7.82;;;5.00;;
71769;SDS011;66386;52.122;5.420;2024-02-26T06:03:15;7.33;;;4.90;;
71769;SDS011;66386;52.122;5.420;2024-02-26T06:05:42;7.35;;;4.70;;
71769;SDS011;66386;52.122;5.420;2024-02-26T06:08:09;9.48;;;5.13;;
71769;SDS011;66386;52.122;5.420;2024-02-26T06:10:35;11.32;;;5.18;;
71769;SDS011;66386;52.122;5.420;2024-02-26T06:13:02;8.77;;;4.97;;
71769;SDS011;66386;52.122;5.420;2024-02-26T06:15:29;10.33;;;5.47;;
71769;SDS011;66386;52.122;5.420;2024-02-26T06:17:55;11.40;;;5.45;;
71769;SDS011;66386;52.122;5.420;2024-02-26T06:20:22;8.38;;;4.90;;
71769;SDS011;66386;52.122;5.420;2024-02-26T06:22:48;8.02;;;4.65;;
71769;SDS011;66386;52.122;5.420;2024-02-26T06:25:15;11.68;;;5.13;;
71769;SDS011;66386;52.122;5.420;2024-02-26T06:27:42;12.30;;;5.07;;
71769;SDS011;66386;52.122;5.420;2024-02-26T06:30:08;9.05;;;5.57;;
71769;SDS011;66386;52.122;5.420;2024-02-26T06:32:37;11.77;;;5.68;;
71769;SDS011;66386;52.122;5.420;2024-02-26T06:35:04;9.13;;;4.45;;
71769;SDS011;66386;52.122;5.420;2024-02-26T06:37:36;9.95;;;5.22;;
71769;SDS011;66386;52.122;5.420;2024-02-26T06:40:03;10.93;;;5.53;;
71769;SDS011;66386;52.122;5.420;2024-02-26T06:42:30;10.70;;;5.93;;
71769;SDS011;66386;52.122;5.420;2024-02-26T06:44:57;11.50;;;6.00;;
71769;SDS011;66386;52.122;5.420;2024-02-26T06:47:24;10.73;;;5.88;;
71769;SDS011;66386;52.122;5.420;2024-02-26T06:49:52;13.57;;;6.57;;
71769;SDS011;66386;52.122;5.420;2024-02-26T06:52:18;12.93;;;6.87;;
71769;SDS011;66386;52.122;5.420;2024-02-26T06:54:45;10.77;;;5.90;;
71769;SDS011;66386;52.122;5.420;2024-02-26T06:57:13;11.63;;;5.93;;
71769;SDS011;66386;52.122;5.420;2024-02-26T06:59:40;10.30;;;5.53;;
71769;SDS011;66386;52.122;5.420;2024-02-26T07:02:07;13.05;;;5.82;;
71769;SDS011;66386;52.122;5.420;2024-02-26T07:04:33;11.77;;;6.70;;
71769;SDS011;66386;52.122;5.420;2024-02-26T07:07:01;13.18;;;6.80;;
71769;SDS011;66386;52.122;5.420;2024-02-26T07:09:27;12.90;;;6.75;;
71769;SDS011;66386;52.122;5.420;2024-02-26T07:11:54;12.88;;;7.30;;
71769;SDS011;66386;52.122;5.420;2024-02-26T07:14:23;14.70;;;6.18;;
71769;SDS011;66386;52.122;5.420;2024-02-26T07:16:51;16.90;;;7.07;;
71769;SDS011;66386;52.122;5.420;2024-02-26T07:19:17;14.30;;;7.25;;
71769;SDS011;66386;52.122;5.420;2024-02-26T07:21:44;15.77;;;8.02;;
71769;SDS011;66386;52.122;5.420;2024-02-26T07:24:10;18.33;;;8.88;;
71769;SDS011;66386;52.122;5.420;2024-02-26T07:26:37;16.83;;;8.15;;
71769;SDS011;66386;52.122;5.420;2024-02-26T07:29:03;16.13;;;8.70;;
71769;SDS011;66386;52.122;5.420;2024-02-26T07:31:32;16.17;;;7.20;;
71769;SDS011;66386;52.122;5.420;2024-02-26T07:33:59;14.95;;;7.50;;
71769;SDS011;66386;52.122;5.420;2024-02-26T07:36:26;16.90;;;8.25;;
71769;SDS011;66386;52.122;5.420;2024-02-26T07:38:52;20.73;;;9.10;;
71769;SDS011;66386;52.122;5.420;2024-02-26T07:41:20;16.40;;;8.33;;
71769;SDS011;66386;52.122;5.420;2024-02-26T07:43:47;16.95;;;8.80;;
71769;SDS011;66386;52.122;5.420;2024-02-26T07:46:14;15.75;;;8.15;;
71769;SDS011;66386;52.122;5.420;2024-02-26T07:48:41;20.83;;;9.65;;
71769;SDS011;66386;52.122;5.420;2024-02-26T07:51:08;17.80;;;8.32;;
71769;SDS011;66386;52.122;5.420;2024-02-26T07:53:35;19.20;;;9.40;;
71769;SDS011;66386;52.122;5.420;2024-02-26T07:56:02;19.00;;;9.13;;
71769;SDS011;66386;52.122;5.420;2024-02-26T07:58:29;18.13;;;9.15;;
71769;SDS011;66386;52.122;5.420;2024-02-26T08:00:56;17.90;;;8.55;;
71769;SDS011;66386;52.122;5.420;2024-02-26T08:03:22;19.55;;;9.25;;
71769;SDS011;66386;52.122;5.420;2024-02-26T08:05:49;16.87;;;8.23;;
71769;SDS011;66386;52.122;5.420;2024-02-26T08:08:17;17.70;;;9.02;;
71769;SDS011;66386;52.122;5.420;2024-02-26T08:10:43;18.58;;;8.23;;
71769;SDS011;66386;52.122;5.420;2024-02-26T08:13:10;17.17;;;8.82;;
71769;SDS011;66386;52.122;5.420;2024-02-26T08:15:36;18.70;;;8.30;;
71769;SDS011;66386;52.122;5.420;2024-02-26T08:18:06;15.60;;;8.27;;
71769;SDS011;66386;52.122;5.420;2024-02-26T08:20:33;16.67;;;9.05;;
71769;SDS011;66386;52.122;5.420;2024-02-26T08:22:59;15.20;;;8.40;;
71769;SDS011;66386;52.122;5.420;2024-02-26T08:25:26;19.27;;;9.75;;
71769;SDS011;66386;52.122;5.420;2024-02-26T08:27:52;14.30;;;7.82;;
71769;SDS011;66386;52.122;5.420;2024-02-26T08:30:19;12.87;;;7.70;;
71769;SDS011;66386;52.122;5.420;2024-02-26T08:32:47;12.27;;;7.10;;
71769;SDS011;66386;52.122;5.420;2024-02-26T08:35:17;13.65;;;7.10;;
71769;SDS011;66386;52.122;5.420;2024-02-26T08:37:45;12.73;;;6.82;;
71769;SDS011;66386;52.122;5.420;2024-02-26T08:40:12;11.80;;;6.68;;
71769;SDS011;66386;52.122;5.420;2024-02-26T08:42:39;11.50;;;5.90;;
71769;SDS011;66386;52.122;5.420;2024-02-26T08:45:07;9.88;;;5.93;;
71769;SDS011;66386;52.122;5.420;2024-02-26T08:47:34;13.98;;;6.85;;
71769;SDS011;66386;52.122;5.420;2024-02-26T08:50:01;9.65;;;5.78;;
71769;SDS011;66386;52.122;5.420;2024-02-26T08:52:28;11.00;;;6.00;;
71769;SDS011;66386;52.122;5.420;2024-02-26T08:54:55;8.47;;;5.63;;
71769;SDS011;66386;52.122;5.420;2024-02-26T08:57:21;8.38;;;5.50;;
71769;SDS011;66386;52.122;5.420;2024-02-26T08:59:48;11.40;;;5.47;;
71769;SDS011;66386;52.122;5.420;2024-02-26T09:02:14;11.85;;;6.05;;
71769;SDS011;66386;52.122;5.420;2024-02-26T09:04:41;8.90;;;4.93;;
71769;SDS011;66386;52.122;5.420;2024-02-26T09:07:08;7.90;;;5.50;;
71769;SDS011;66386;52.122;5.420;2024-02-26T09:09:34;9.55;;;5.07;;
71769;SDS011;66386;52.122;5.420;2024-02-26T09:12:01;7.63;;;5.25;;
71769;SDS011;66386;52.122;5.420;2024-02-26T09:14:28;8.85;;;5.82;;
71769;SDS011;66386;52.122;5.420;2024-02-26T09:16:55;8.75;;;4.95;;
71769;SDS011;66386;52.122;5.420;2024-02-26T09:19:22;7.40;;;4.73;;
71769;SDS011;66386;52.122;5.420;2024-02-26T09:21:50;8.40;;;5.40;;
71769;SDS011;66386;52.122;5.420;2024-02-26T09:24:16;8.07;;;4.78;;
71769;SDS011;66386;52.122;5.420;2024-02-26T09:26:43;8.40;;;4.43;;
71769;SDS011;66386;52.122;5.420;2024-02-26T09:29:09;7.57;;;4.43;;
71769;SDS011;66386;52.122;5.420;2024-02-26T09:31:36;6.37;;;4.40;;
71769;SDS011;66386;52.122;5.420;2024-02-26T09:34:02;7.80;;;4.63;;
71769;SDS011;66386;52.122;5.420;2024-02-26T09:36:29;9.32;;;4.78;;
71769;SDS011;66386;52.122;5.420;2024-02-26T09:38:56;10.13;;;4.43;;
71769;SDS011;66386;52.122;5.420;2024-02-26T09:41:30;9.00;;;4.60;;
71769;SDS011;66386;52.122;5.420;2024-02-26T09:43:57;6.83;;;4.67;;
71769;SDS011;66386;52.122;5.420;2024-02-26T09:46:26;6.97;;;4.47;;
71769;SDS011;66386;52.122;5.420;2024-02-26T09:48:52;6.68;;;4.20;;
71769;SDS011;66386;52.122;5.420;2024-02-26T09:51:20;6.25;;;4.00;;
71769;SDS011;66386;52.122;5.420;2024-02-26T09:53:51;6.63;;;3.88;;
71769;SDS011;66386;52.122;5.420;2024-02-26T09:56:19;7.93;;;4.70;;
71769;SDS011;66386;52.122;5.420;2024-02-26T09:58:47;6.65;;;3.80;;
71769;SDS011;66386;52.122;5.420;2024-02-26T10:01:20;6.70;;;3.75;;
71769;SDS011;66386;52.122;5.420;2024-02-26T10:03:52;6.47;;;4.22;;
71769;SDS011;66386;52.122;5.420;2024-02-26T10:06:24;7.75;;;3.85;;
71769;SDS011;66386;52.122;5.420;2024-02-26T10:08:52;7.13;;;4.00;;
71769;SDS011;66386;52.122;5.420;2024-02-26T10:11:20;5.47;;;3.63;;
71769;SDS011;66386;52.122;5.420;2024-02-26T10:13:51;5.88;;;3.75;;
71769;SDS011;66386;52.122;5.420;2024-02-26T10:16:17;5.82;;;4.00;;
71769;SDS011;66386;52.122;5.420;2024-02-26T10:18:53;5.72;;;3.50;;
71769;SDS011;66386;52.122;5.420;2024-02-26T10:21:25;6.93;;;4.53;;
71769;SDS011;66386;52.122;5.420;2024-02-26T10:23:52;7.50;;;3.92;;
71769;SDS011;66386;52.122;5.420;2024-02-26T10:26:19;5.47;;;3.95;;
71769;SDS011;66386;52.122;5.420;2024-02-26T10:28:46;5.90;;;3.85;;
71769;SDS011;66386;52.122;5.420;2024-02-26T10:31:17;5.90;;;3.55;;
71769;SDS011;66386;52.122;5.420;2024-02-26T10:33:45;6.10;;;3.97;;
71769;SDS011;66386;52.122;5.420;2024-02-26T10:36:11;6.38;;;3.90;;
71769;SDS011;66386;52.122;5.420;2024-02-26T10:38:38;6.78;;;3.42;;
71769;SDS011;66386;52.122;5.420;2024-02-26T10:41:09;8.40;;;3.95;;
71769;SDS011;66386;52.122;5.420;2024-02-26T10:43:39;6.88;;;3.63;;
71769;SDS011;66386;52.122;5.420;2024-02-26T10:46:06;6.87;;;3.37;;
71769;SDS011;66386;52.122;5.420;2024-02-26T10:48:34;6.05;;;3.92;;
71769;SDS011;66386;52.122;5.420;2024-02-26T10:51:01;6.30;;;3.30;;
71769;SDS011;66386;52.122;5.420;2024-02-26T10:53:29;5.80;;;3.30;;
71769;SDS011;66386;52.122;5.420;2024-02-26T10:55:59;5.50;;;3.17;;
71769;SDS011;66386;52.122;5.420;2024-02-26T10:58:28;5.10;;;3.33;;
71769;SDS011;66386;52.122;5.420;2024-02-26T11:00:56;5.90;;;3.72;;
71769;SDS011;66386;52.122;5.420;2024-02-26T11:03:24;5.15;;;3.17;;
71769;SDS011;66386;52.122;5.420;2024-02-26T11:05:51;4.38;;;3.17;;
71769;SDS011;66386;52.122;5.420;2024-02-26T11:08:19;5.18;;;3.80;;
71769;SDS011;66386;52.122;5.420;2024-02-26T11:10:50;5.37;;;3.40;;
71769;SDS011;66386;52.122;5.420;2024-02-26T11:13:21;5.50;;;3.53;;
71769;SDS011;66386;52.122;5.420;2024-02-26T11:15:52;6.43;;;3.47;;
71769;SDS011;66386;52.122;5.420;2024-02-26T11:18:21;4.63;;;3.35;;
71769;SDS011;66386;52.122;5.420;2024-02-26T11:20:49;5.57;;;3.60;;
71769;SDS011;66386;52.122;5.420;2024-02-26T11:23:17;5.63;;;3.20;;
71769;SDS011;66386;52.122;5.420;2024-02-26T11:25:43;4.90;;;3.17;;
71769;SDS011;66386;52.122;5.420;2024-02-26T11:28:12;6.63;;;3.80;;
71769;SDS011;66386;52.122;5.420;2024-02-26T11:30:44;4.90;;;3.28;;
71769;SDS011;66386;52.122;5.420;2024-02-26T11:33:12;7.60;;;3.40;;
71769;SDS011;66386;52.122;5.420;2024-02-26T11:35:41;6.13;;;3.20;;
71769;SDS011;66386;52.122;5.420;2024-02-26T11:38:08;6.13;;;3.35;;
71769;SDS011;66386;52.122;5.420;2024-02-26T11:40:44;4.65;;;3.08;;
71769;SDS011;66386;52.122;5.420;2024-02-26T11:43:11;5.57;;;3.67;;
71769;SDS011;66386;52.122;5.420;2024-02-26T11:48:04;7.17;;;4.53;;
71769;SDS011;66386;52.122;5.420;2024-02-26T11:53:27;5.85;;;3.90;;
71769;SDS011;66386;52.122;5.420;2024-02-26T11:58:47;5.88;;;3.85;;
71769;SDS011;66386;52.122;5.420;2024-02-26T12:04:05;6.57;;;3.38;;
71769;SDS011;66386;52.122;5.420;2024-02-26T12:06:40;7.03;;;4.30;;
71769;SDS011;66386;52.122;5.420;2024-02-26T12:09:08;5.97;;;3.50;;
71769;SDS011;66386;52.122;5.420;2024-02-26T12:11:38;5.70;;;3.55;;
71769;SDS011;66386;52.122;5.420;2024-02-26T12:14:07;7.20;;;3.50;;
71769;SDS011;66386;52.122;5.420;2024-02-26T12:16:38;6.00;;;4.05;;
71769;SDS011;66386;52.122;5.420;2024-02-26T12:19:06;6.50;;;3.80;;
71769;SDS011;66386;52.122;5.420;2024-02-26T12:21:35;4.82;;;3.47;;
71769;SDS011;66386;52.122;5.420;2024-02-26T12:24:12;4.82;;;3.35;;
71769;SDS011;66386;52.122;5.420;2024-02-26T12:26:40;5.07;;;3.47;;
71769;SDS011;66386;52.122;5.420;2024-02-26T12:29:07;4.20;;;3.20;;
71769;SDS011;66386;52.122;5.420;2024-02-26T12:31:34;5.30;;;3.38;;
71769;SDS011;66386;52.122;5.420;2024-02-26T12:34:04;6.30;;;3.35;;
71769;SDS011;66386;52.122;5.420;2024-02-26T12:36:31;5.68;;;3.85;;
71769;SDS011;66386;52.122;5.420;2024-02-26T12:39:00;6.10;;;3.90;;
71769;SDS011;66386;52.122;5.420;2024-02-26T12:41:28;4.97;;;2.97;;
71769;SDS011;66386;52.122;5.420;2024-02-26T12:43:57;5.75;;;3.65;;
71769;SDS011;66386;52.122;5.420;2024-02-26T12:46:24;5.57;;;3.45;;
71769;SDS011;66386;52.122;5.420;2024-02-26T12:48:51;5.20;;;3.28;;
71769;SDS011;66386;52.122;5.420;2024-02-26T12:51:17;5.47;;;3.13;;
71769;SDS011;66386;52.122;5.420;2024-02-26T12:53:44;4.10;;;3.28;;
71769;SDS011;66386;52.122;5.420;2024-02-26T12:56:12;4.65;;;3.13;;
71769;SDS011;66386;52.122;5.420;2024-02-26T12:58:39;4.57;;;3.03;;
71769;SDS011;66386;52.122;5.420;2024-02-26T13:01:06;5.82;;;3.40;;
71769;SDS011;66386;52.122;5.420;2024-02-26T13:03:40;5.27;;;3.30;;
71769;SDS011;66386;52.122;5.420;2024-02-26T13:06:09;6.65;;;3.78;;
71769;SDS011;66386;52.122;5.420;2024-02-26T13:08:37;6.32;;;3.95;;
71769;SDS011;66386;52.122;5.420;2024-02-26T13:11:03;5.70;;;3.33;;
71769;SDS011;66386;52.122;5.420;2024-02-26T13:13:30;6.68;;;3.63;;
71769;SDS011;66386;52.122;5.420;2024-02-26T13:16:04;5.83;;;3.80;;
71769;SDS011;66386;52.122;5.420;2024-02-26T13:18:34;4.80;;;3.55;;
71769;SDS011;66386;52.122;5.420;2024-02-26T13:21:08;5.20;;;3.40;;
71769;SDS011;66386;52.122;5.420;2024-02-26T13:23:42;4.22;;;3.08;;
71769;SDS011;66386;52.122;5.420;2024-02-26T13:26:11;5.60;;;3.72;;
71769;SDS011;66386;52.122;5.420;2024-02-26T13:28:39;4.77;;;3.37;;
71769;SDS011;66386;52.122;5.420;2024-02-26T13:31:06;5.25;;;3.38;;
71769;SDS011;66386;52.122;5.420;2024-02-26T13:33:34;5.43;;;3.35;;
71769;SDS011;66386;52.122;5.420;2024-02-26T13:36:01;6.88;;;3.20;;
71769;SDS011;66386;52.122;5.420;2024-02-26T13:38:28;5.38;;;3.22;;
71769;SDS011;66386;52.122;5.420;2024-02-26T13:40:54;6.13;;;3.60;;
71769;SDS011;66386;52.122;5.420;2024-02-26T13:43:21;5.10;;;4.22;;
71769;SDS011;66386;52.122;5.420;2024-02-26T13:45:48;6.28;;;3.90;;
71769;SDS011;66386;52.122;5.420;2024-02-26T13:48:15;5.07;;;3.20;;
71769;SDS011;66386;52.122;5.420;2024-02-26T13:50:42;6.05;;;3.22;;
71769;SDS011;66386;52.122;5.420;2024-02-26T13:53:09;5.07;;;3.40;;
71769;SDS011;66386;52.122;5.420;2024-02-26T13:55:37;6.95;;;3.78;;
71769;SDS011;66386;52.122;5.420;2024-02-26T13:58:04;5.22;;;3.30;;
71769;SDS011;66386;52.122;5.420;2024-02-26T14:00:30;5.18;;;3.05;;
71769;SDS011;66386;52.122;5.420;2024-02-26T14:03:00;5.70;;;3.58;;
71769;SDS011;66386;52.122;5.420;2024-02-26T14:05:27;6.10;;;3.03;;
71769;SDS011;66386;52.122;5.420;2024-02-26T14:07:54;6.72;;;2.80;;
71769;SDS011;66386;52.122;5.420;2024-02-26T14:10:21;4.85;;;2.92;;
71769;SDS011;66386;52.122;5.420;2024-02-26T14:12:48;5.13;;;2.92;;
71769;SDS011;66386;52.122;5.420;2024-02-26T14:15:14;3.95;;;2.80;;
71769;SDS011;66386;52.122;5.420;2024-02-26T14:17:41;3.17;;;2.43;;
71769;SDS011;66386;52.122;5.420;2024-02-26T14:20:09;4.25;;;2.80;;
71769;SDS011;66386;52.122;5.420;2024-02-26T14:22:36;4.75;;;2.50;;
71769;SDS011;66386;52.122;5.420;2024-02-26T14:25:03;4.28;;;2.88;;
71769;SDS011;66386;52.122;5.420;2024-02-26T14:27:29;5.57;;;2.72;;
71769;SDS011;66386;52.122;5.420;2024-02-26T14:29:56;3.53;;;2.30;;
71769;SDS011;66386;52.122;5.420;2024-02-26T14:32:23;4.20;;;3.03;;
71769;SDS011;66386;52.122;5.420;2024-02-26T14:34:49;5.40;;;2.60;;
71769;SDS011;66386;52.122;5.420;2024-02-26T14:37:16;4.40;;;2.55;;
71769;SDS011;66386;52.122;5.420;2024-02-26T14:39:42;3.75;;;2.47;;
71769;SDS011;66386;52.122;5.420;2024-02-26T14:42:09;3.27;;;2.53;;
71769;SDS011;66386;52.122;5.420;2024-02-26T14:44:35;3.58;;;2.40;;
71769;SDS011;66386;52.122;5.420;2024-02-26T14:47:02;4.13;;;2.88;;
71769;SDS011;66386;52.122;5.420;2024-02-26T14:49:29;3.58;;;2.33;;
71769;SDS011;66386;52.122;5.420;2024-02-26T14:51:58;4.03;;;2.60;;
71769;SDS011;66386;52.122;5.420;2024-02-26T14:54:24;4.07;;;2.37;;
71769;SDS011;66386;52.122;5.420;2024-02-26T14:56:51;3.85;;;2.20;;